sensor_id;sensor_type;location;lat;lon;timestamp;temperature;humidity
7936;DHT22;4013;49.744;8.118;2023-04-25T00:01:02;8.90;99.90
7936;DHT22;4013;49.744;8.118;2023-04-25T00:03:31;8.90;99.90
7936;DHT22;4013;49.744;8.118;2023-04-25T00:05:58;8.90;99.90
7936;DHT22;4013;49.744;8.118;2023-04-25T00:08:28;9.00;99.90
7936;DHT22;4013;49.744;8.118;2023-04-25T00:10:55;9.00;99.90
7936;DHT22;4013;49.744;8.118;2023-04-25T00:13:22;9.00;99.90
7936;DHT22;4013;49.744;8.118;2023-04-25T00:15:50;9.00;99.90
7936;DHT22;4013;49.744;8.118;2023-04-25T00:18:18;9.00;99.90
7936;DHT22;4013;49.744;8.118;2023-04-25T00:20:47;9.00;99.90
7936;DHT22;4013;49.744;8.118;2023-04-25T00:23:14;9.00;99.90
7936;DHT22;4013;49.744;8.118;2023-04-25T00:25:43;9.00;99.90
7936;DHT22;4013;49.744;8.118;2023-04-25T00:28:10;8.90;99.90
7936;DHT22;4013;49.744;8.118;2023-04-25T00:30:37;9.00;99.90
7936;DHT22;4013;49.744;8.118;2023-04-25T00:33:06;9.00;99.90
7936;DHT22;4013;49.744;8.118;2023-04-25T00:35:36;9.00;99.90
7936;DHT22;4013;49.744;8.118;2023-04-25T00:38:07;8.90;99.90
7936;DHT22;4013;49.744;8.118;2023-04-25T00:40:34;9.00;99.90
7936;DHT22;4013;49.744;8.118;2023-04-25T00:43:04;9.00;99.90
7936;DHT22;4013;49.744;8.118;2023-04-25T00:45:32;8.90;99.90
7936;DHT22;4013;49.744;8.118;2023-04-25T00:48:01;8.90;99.90
7936;DHT22;4013;49.744;8.118;2023-04-25T00:50:28;8.90;99.90
7936;DHT22;4013;49.744;8.118;2023-04-25T00:52:56;8.90;99.90
7936;DHT22;4013;49.744;8.118;2023-04-25T00:55:24;8.90;99.90
7936;DHT22;4013;49.744;8.118;2023-04-25T00:57:51;8.90;99.90
7936;DHT22;4013;49.744;8.118;2023-04-25T01:00:19;8.90;99.90
7936;DHT22;4013;49.744;8.118;2023-04-25T01:02:47;8.80;99.90
7936;DHT22;4013;49.744;8.118;2023-04-25T01:05:15;8.80;99.90
7936;DHT22;4013;49.744;8.118;2023-04-25T01:07:44;8.90;99.90
7936;DHT22;4013;49.744;8.118;2023-04-25T01:10:12;8.90;99.90
7936;DHT22;4013;49.744;8.118;2023-04-25T01:12:42;8.90;99.90
7936;DHT22;4013;49.744;8.118;2023-04-25T01:15:09;8.80;99.90
7936;DHT22;4013;49.744;8.118;2023-04-25T01:17:36;8.80;99.90
7936;DHT22;4013;49.744;8.118;2023-04-25T01:20:06;8.90;99.90
7936;DHT22;4013;49.744;8.118;2023-04-25T01:22:36;8.80;99.90
7936;DHT22;4013;49.744;8.118;2023-04-25T01:25:04;8.80;99.90
7936;DHT22;4013;49.744;8.118;2023-04-25T01:27:31;8.70;99.90
7936;DHT22;4013;49.744;8.118;2023-04-25T01:29:59;8.70;99.90
7936;DHT22;4013;49.744;8.118;2023-04-25T01:32:26;8.80;99.90
7936;DHT22;4013;49.744;8.118;2023-04-25T01:34:53;8.80;99.90
7936;DHT22;4013;49.744;8.118;2023-04-25T01:37:20;8.80;99.90
7936;DHT22;4013;49.744;8.118;2023-04-25T01:39:49;8.80;99.90
7936;DHT22;4013;49.744;8.118;2023-04-25T01:42:16;8.80;99.90
7936;DHT22;4013;49.744;8.118;2023-04-25T01:44:43;8.80;99.90
7936;DHT22;4013;49.744;8.118;2023-04-25T01:47:10;8.80;99.90
7936;DHT22;4013;49.744;8.118;2023-04-25T01:49:37;8.90;99.90
7936;DHT22;4013;49.744;8.118;2023-04-25T01:52:04;8.90;99.90
7936;DHT22;4013;49.744;8.118;2023-04-25T01:54:31;9.00;99.90
7936;DHT22;4013;49.744;8.118;2023-04-25T01:56:59;9.00;99.90
7936;DHT22;4013;49.744;8.118;2023-04-25T01:59:27;8.90;99.90
7936;DHT22;4013;49.744;8.118;2023-04-25T02:01:54;8.80;99.90
7936;DHT22;4013;49.744;8.118;2023-04-25T02:04:21;8.90;99.90
7936;DHT22;4013;49.744;8.118;2023-04-25T02:06:48;8.80;99.90
7936;DHT22;4013;49.744;8.118;2023-04-25T02:09:15;8.80;99.90
7936;DHT22;4013;49.744;8.118;2023-04-25T02:11:41;8.80;99.90
7936;DHT22;4013;49.744;8.118;2023-04-25T02:14:10;8.80;99.90
7936;DHT22;4013;49.744;8.118;2023-04-25T02:16:37;8.80;99.90
7936;DHT22;4013;49.744;8.118;2023-04-25T02:19:05;8.80;99.90
7936;DHT22;4013;49.744;8.118;2023-04-25T02:21:32;8.90;99.90
7936;DHT22;4013;49.744;8.118;2023-04-25T02:24:01;8.90;99.90
7936;DHT22;4013;49.744;8.118;2023-04-25T02:26:28;8.90;99.90
7936;DHT22;4013;49.744;8.118;2023-04-25T02:28:56;8.90;99.90
7936;DHT22;4013;49.744;8.118;2023-04-25T02:31:24;9.00;99.90
7936;DHT22;4013;49.744;8.118;2023-04-25T02:33:51;9.00;99.90
7936;DHT22;4013;49.744;8.118;2023-04-25T02:36:18;9.00;99.90
7936;DHT22;4013;49.744;8.118;2023-04-25T02:38:45;9.00;99.90
7936;DHT22;4013;49.744;8.118;2023-04-25T02:41:12;9.00;99.90
7936;DHT22;4013;49.744;8.118;2023-04-25T02:43:39;8.90;99.90
7936;DHT22;4013;49.744;8.118;2023-04-25T02:46:06;9.00;99.90
7936;DHT22;4013;49.744;8.118;2023-04-25T02:48:35;8.90;99.90
7936;DHT22;4013;49.744;8.118;2023-04-25T02:51:02;8.90;99.90
7936;DHT22;4013;49.744;8.118;2023-04-25T02:53:31;8.90;99.90
7936;DHT22;4013;49.744;8.118;2023-04-25T02:56:00;8.90;99.90
7936;DHT22;4013;49.744;8.118;2023-04-25T02:58:27;8.80;99.90
7936;DHT22;4013;49.744;8.118;2023-04-25T03:00:54;8.80;99.90
7936;DHT22;4013;49.744;8.118;2023-04-25T03:03:21;8.80;99.90
7936;DHT22;4013;49.744;8.118;2023-04-25T03:05:49;8.80;99.90
7936;DHT22;4013;49.744;8.118;2023-04-25T03:08:17;8.80;99.90
7936;DHT22;4013;49.744;8.118;2023-04-25T03:10:44;8.80;99.90
7936;DHT22;4013;49.744;8.118;2023-04-25T03:13:11;8.80;99.90
7936;DHT22;4013;49.744;8.118;2023-04-25T03:15:38;8.80;99.90
7936;DHT22;4013;49.744;8.118;2023-04-25T03:18:05;8.70;99.90
7936;DHT22;4013;49.744;8.118;2023-04-25T03:20:32;8.80;99.90
7936;DHT22;4013;49.744;8.118;2023-04-25T03:23:00;8.80;99.90
7936;DHT22;4013;49.744;8.118;2023-04-25T03:25:27;8.80;99.90
7936;DHT22;4013;49.744;8.118;2023-04-25T03:27:54;8.80;99.90
7936;DHT22;4013;49.744;8.118;2023-04-25T03:30:21;8.70;99.90
7936;DHT22;4013;49.744;8.118;2023-04-25T03:32:48;8.80;99.90
7936;DHT22;4013;49.744;8.118;2023-04-25T03:35:15;8.70;99.90
7936;DHT22;4013;49.744;8.118;2023-04-25T03:37:42;8.70;99.90
7936;DHT22;4013;49.744;8.118;2023-04-25T03:40:12;8.70;99.90
7936;DHT22;4013;49.744;8.118;2023-04-25T03:42:39;8.70;99.90
7936;DHT22;4013;49.744;8.118;2023-04-25T03:45:07;8.80;99.90
7936;DHT22;4013;49.744;8.118;2023-04-25T03:47:34;8.80;99.90
7936;DHT22;4013;49.744;8.118;2023-04-25T03:50:01;8.80;99.90
7936;DHT22;4013;49.744;8.118;2023-04-25T03:52:28;8.70;99.90
7936;DHT22;4013;49.744;8.118;2023-04-25T03:54:55;8.70;99.90
7936;DHT22;4013;49.744;8.118;2023-04-25T03:57:23;8.60;99.90
7936;DHT22;4013;49.744;8.118;2023-04-25T03:59:50;8.60;99.90
7936;DHT22;4013;49.744;8.118;2023-04-25T04:02:18;8.60;99.90
7936;DHT22;4013;49.744;8.118;2023-04-25T04:04:45;8.60;99.90
7936;DHT22;4013;49.744;8.118;2023-04-25T04:07:11;8.60;99.90
7936;DHT22;4013;49.744;8.118;2023-04-25T04:09:38;8.60;99.90
7936;DHT22;4013;49.744;8.118;2023-04-25T04:12:06;8.60;99.90
7936;DHT22;4013;49.744;8.118;2023-04-25T04:14:34;8.60;99.90
7936;DHT22;4013;49.744;8.118;2023-04-25T04:17:01;8.60;99.90
7936;DHT22;4013;49.744;8.118;2023-04-25T04:19:28;8.50;99.90
7936;DHT22;4013;49.744;8.118;2023-04-25T04:21:55;8.50;99.90
7936;DHT22;4013;49.744;8.118;2023-04-25T04:24:23;8.60;99.90
7936;DHT22;4013;49.744;8.118;2023-04-25T04:26:50;8.60;99.90
7936;DHT22;4013;49.744;8.118;2023-04-25T04:29:17;8.60;99.90
7936;DHT22;4013;49.744;8.118;2023-04-25T04:31:49;8.60;99.90
7936;DHT22;4013;49.744;8.118;2023-04-25T04:34:16;8.60;99.90
7936;DHT22;4013;49.744;8.118;2023-04-25T04:36:44;8.60;99.90
7936;DHT22;4013;49.744;8.118;2023-04-25T04:39:12;8.60;99.90
7936;DHT22;4013;49.744;8.118;2023-04-25T04:41:39;8.50;99.90
7936;DHT22;4013;49.744;8.118;2023-04-25T04:44:06;8.50;99.90
7936;DHT22;4013;49.744;8.118;2023-04-25T04:46:34;8.60;99.90
7936;DHT22;4013;49.744;8.118;2023-04-25T04:49:05;8.60;99.90
7936;DHT22;4013;49.744;8.118;2023-04-25T04:51:32;8.60;99.90
7936;DHT22;4013;49.744;8.118;2023-04-25T04:53:59;8.60;99.90
7936;DHT22;4013;49.744;8.118;2023-04-25T04:56:28;8.60;99.90
7936;DHT22;4013;49.744;8.118;2023-04-25T04:58:56;8.60;99.90
7936;DHT22;4013;49.744;8.118;2023-04-25T05:01:25;8.70;99.90
7936;DHT22;4013;49.744;8.118;2023-04-25T05:03:52;8.70;99.90
7936;DHT22;4013;49.744;8.118;2023-04-25T05:06:21;8.60;99.90
7936;DHT22;4013;49.744;8.118;2023-04-25T05:08:47;8.70;99.90
7936;DHT22;4013;49.744;8.118;2023-04-25T05:11:14;8.80;99.90
7936;DHT22;4013;49.744;8.118;2023-04-25T05:13:41;8.80;99.90
7936;DHT22;4013;49.744;8.118;2023-04-25T05:16:08;8.70;99.90
7936;DHT22;4013;49.744;8.118;2023-04-25T05:18:35;8.60;99.90
7936;DHT22;4013;49.744;8.118;2023-04-25T05:21:02;8.70;99.90
7936;DHT22;4013;49.744;8.118;2023-04-25T05:23:31;8.60;99.90
7936;DHT22;4013;49.744;8.118;2023-04-25T05:25:58;8.60;99.90
7936;DHT22;4013;49.744;8.118;2023-04-25T05:28:25;8.60;99.90
7936;DHT22;4013;49.744;8.118;2023-04-25T05:30:52;8.60;99.90
7936;DHT22;4013;49.744;8.118;2023-04-25T05:33:19;8.50;99.90
7936;DHT22;4013;49.744;8.118;2023-04-25T05:35:46;8.50;99.90
7936;DHT22;4013;49.744;8.118;2023-04-25T05:38:13;8.50;99.90
7936;DHT22;4013;49.744;8.118;2023-04-25T05:40:41;8.30;99.90
7936;DHT22;4013;49.744;8.118;2023-04-25T05:43:08;8.20;99.90
7936;DHT22;4013;49.744;8.118;2023-04-25T05:45:35;8.10;99.90
7936;DHT22;4013;49.744;8.118;2023-04-25T05:48:02;8.20;99.90
7936;DHT22;4013;49.744;8.118;2023-04-25T05:50:29;8.10;99.90
7936;DHT22;4013;49.744;8.118;2023-04-25T05:52:56;8.10;99.90
7936;DHT22;4013;49.744;8.118;2023-04-25T05:55:23;8.20;99.90
7936;DHT22;4013;49.744;8.118;2023-04-25T05:57:51;8.20;99.90
7936;DHT22;4013;49.744;8.118;2023-04-25T06:00:18;8.10;99.90
7936;DHT22;4013;49.744;8.118;2023-04-25T06:02:48;8.00;99.90
7936;DHT22;4013;49.744;8.118;2023-04-25T06:05:15;7.90;99.90
7936;DHT22;4013;49.744;8.118;2023-04-25T06:07:42;8.00;99.90
7936;DHT22;4013;49.744;8.118;2023-04-25T06:10:09;8.10;99.90
7936;DHT22;4013;49.744;8.118;2023-04-25T06:12:36;8.20;99.90
7936;DHT22;4013;49.744;8.118;2023-04-25T06:15:06;8.20;99.90
7936;DHT22;4013;49.744;8.118;2023-04-25T06:17:33;8.30;99.90
7936;DHT22;4013;49.744;8.118;2023-04-25T06:20:00;8.30;99.90
7936;DHT22;4013;49.744;8.118;2023-04-25T06:22:29;8.20;99.90
7936;DHT22;4013;49.744;8.118;2023-04-25T06:24:56;8.20;99.90
7936;DHT22;4013;49.744;8.118;2023-04-25T06:27:25;8.20;99.90
7936;DHT22;4013;49.744;8.118;2023-04-25T06:29:52;8.30;99.90
7936;DHT22;4013;49.744;8.118;2023-04-25T06:32:20;8.40;99.90
7936;DHT22;4013;49.744;8.118;2023-04-25T06:34:47;8.50;99.90
7936;DHT22;4013;49.744;8.118;2023-04-25T06:37:14;8.40;99.90
7936;DHT22;4013;49.744;8.118;2023-04-25T06:39:41;8.30;99.90
7936;DHT22;4013;49.744;8.118;2023-04-25T06:42:08;8.40;99.90
7936;DHT22;4013;49.744;8.118;2023-04-25T06:44:35;8.40;99.90
7936;DHT22;4013;49.744;8.118;2023-04-25T06:47:02;8.30;99.90
7936;DHT22;4013;49.744;8.118;2023-04-25T06:49:30;8.20;99.90
7936;DHT22;4013;49.744;8.118;2023-04-25T06:51:57;8.20;99.90
7936;DHT22;4013;49.744;8.118;2023-04-25T06:54:25;8.30;99.90
7936;DHT22;4013;49.744;8.118;2023-04-25T06:56:52;8.20;99.90
7936;DHT22;4013;49.744;8.118;2023-04-25T06:59:19;8.10;99.90
7936;DHT22;4013;49.744;8.118;2023-04-25T07:01:46;8.10;99.90
7936;DHT22;4013;49.744;8.118;2023-04-25T07:04:13;8.30;99.90
7936;DHT22;4013;49.744;8.118;2023-04-25T07:06:41;8.30;99.90
7936;DHT22;4013;49.744;8.118;2023-04-25T07:09:09;8.30;99.90
7936;DHT22;4013;49.744;8.118;2023-04-25T07:11:36;8.40;99.90
7936;DHT22;4013;49.744;8.118;2023-04-25T07:14:03;8.40;99.90
7936;DHT22;4013;49.744;8.118;2023-04-25T07:16:30;8.30;99.90
7936;DHT22;4013;49.744;8.118;2023-04-25T07:18:57;8.30;99.90
7936;DHT22;4013;49.744;8.118;2023-04-25T07:21:25;8.50;99.90
7936;DHT22;4013;49.744;8.118;2023-04-25T07:23:53;8.60;99.90
7936;DHT22;4013;49.744;8.118;2023-04-25T07:26:20;8.70;99.90
7936;DHT22;4013;49.744;8.118;2023-04-25T07:28:47;8.70;99.90
7936;DHT22;4013;49.744;8.118;2023-04-25T07:31:16;8.60;99.90
7936;DHT22;4013;49.744;8.118;2023-04-25T07:33:43;8.60;99.90
7936;DHT22;4013;49.744;8.118;2023-04-25T07:36:11;8.50;99.90
7936;DHT22;4013;49.744;8.118;2023-04-25T07:38:38;8.60;99.90
7936;DHT22;4013;49.744;8.118;2023-04-25T07:41:07;8.70;99.90
7936;DHT22;4013;49.744;8.118;2023-04-25T07:43:34;8.70;99.90
7936;DHT22;4013;49.744;8.118;2023-04-25T07:46:01;8.60;99.90
7936;DHT22;4013;49.744;8.118;2023-04-25T07:48:28;8.60;99.90
7936;DHT22;4013;49.744;8.118;2023-04-25T07:50:55;8.60;99.90
7936;DHT22;4013;49.744;8.118;2023-04-25T07:53:22;8.60;99.90
7936;DHT22;4013;49.744;8.118;2023-04-25T07:55:49;8.50;99.90
7936;DHT22;4013;49.744;8.118;2023-04-25T07:58:18;8.60;99.90
7936;DHT22;4013;49.744;8.118;2023-04-25T08:00:46;8.60;99.90
7936;DHT22;4013;49.744;8.118;2023-04-25T08:03:14;8.60;99.90
7936;DHT22;4013;49.744;8.118;2023-04-25T08:05:40;8.60;99.90
7936;DHT22;4013;49.744;8.118;2023-04-25T08:08:07;8.70;99.90
7936;DHT22;4013;49.744;8.118;2023-04-25T08:10:34;8.70;99.90
7936;DHT22;4013;49.744;8.118;2023-04-25T08:13:01;8.80;99.90
7936;DHT22;4013;49.744;8.118;2023-04-25T08:15:30;8.60;99.90
7936;DHT22;4013;49.744;8.118;2023-04-25T08:17:57;8.60;99.90
7936;DHT22;4013;49.744;8.118;2023-04-25T08:20:25;8.70;99.90
7936;DHT22;4013;49.744;8.118;2023-04-25T08:22:52;8.70;99.90
7936;DHT22;4013;49.744;8.118;2023-04-25T08:25:19;8.70;99.90
7936;DHT22;4013;49.744;8.118;2023-04-25T08:27:46;8.70;99.90
7936;DHT22;4013;49.744;8.118;2023-04-25T08:30:13;8.80;99.90
7936;DHT22;4013;49.744;8.118;2023-04-25T08:32:41;8.90;99.90
7936;DHT22;4013;49.744;8.118;2023-04-25T08:35:09;8.90;99.90
7936;DHT22;4013;49.744;8.118;2023-04-25T08:37:36;9.10;99.90
7936;DHT22;4013;49.744;8.118;2023-04-25T08:40:04;9.10;99.90
7936;DHT22;4013;49.744;8.118;2023-04-25T08:42:33;9.10;99.90
7936;DHT22;4013;49.744;8.118;2023-04-25T08:45:02;9.30;99.90
7936;DHT22;4013;49.744;8.118;2023-04-25T08:47:30;9.50;99.90
7936;DHT22;4013;49.744;8.118;2023-04-25T08:50:02;9.50;99.90
7936;DHT22;4013;49.744;8.118;2023-04-25T08:52:35;9.40;99.90
7936;DHT22;4013;49.744;8.118;2023-04-25T08:55:03;9.50;99.90
7936;DHT22;4013;49.744;8.118;2023-04-25T08:57:31;9.80;99.90
7936;DHT22;4013;49.744;8.118;2023-04-25T09:00:00;9.70;99.90
7936;DHT22;4013;49.744;8.118;2023-04-25T09:02:29;9.60;99.90
7936;DHT22;4013;49.744;8.118;2023-04-25T09:04:56;9.50;99.90
7936;DHT22;4013;49.744;8.118;2023-04-25T09:07:25;9.40;99.90
7936;DHT22;4013;49.744;8.118;2023-04-25T09:09:52;9.50;99.90
7936;DHT22;4013;49.744;8.118;2023-04-25T09:12:19;9.70;99.90
7936;DHT22;4013;49.744;8.118;2023-04-25T09:15:02;9.90;99.90
7936;DHT22;4013;49.744;8.118;2023-04-25T09:17:29;10.00;99.90
7936;DHT22;4013;49.744;8.118;2023-04-25T09:20:05;10.00;99.90
7936;DHT22;4013;49.744;8.118;2023-04-25T09:22:34;9.90;99.90
7936;DHT22;4013;49.744;8.118;2023-04-25T09:25:03;9.70;99.90
7936;DHT22;4013;49.744;8.118;2023-04-25T09:27:32;9.70;99.90
7936;DHT22;4013;49.744;8.118;2023-04-25T09:30:00;9.80;99.90
7936;DHT22;4013;49.744;8.118;2023-04-25T09:32:27;9.90;99.90
7936;DHT22;4013;49.744;8.118;2023-04-25T09:34:55;10.10;99.90
7936;DHT22;4013;49.744;8.118;2023-04-25T09:37:24;10.20;99.90
7936;DHT22;4013;49.744;8.118;2023-04-25T09:39:54;10.10;99.90
7936;DHT22;4013;49.744;8.118;2023-04-25T09:42:22;10.20;99.90
7936;DHT22;4013;49.744;8.118;2023-04-25T09:44:52;10.20;99.90
7936;DHT22;4013;49.744;8.118;2023-04-25T09:47:20;10.40;99.90
7936;DHT22;4013;49.744;8.118;2023-04-25T09:49:49;10.40;99.90
7936;DHT22;4013;49.744;8.118;2023-04-25T09:52:18;10.30;99.90
7936;DHT22;4013;49.744;8.118;2023-04-25T09:54:45;10.20;99.90
7936;DHT22;4013;49.744;8.118;2023-04-25T09:57:15;10.20;99.90
7936;DHT22;4013;49.744;8.118;2023-04-25T09:59:45;10.00;99.90
7936;DHT22;4013;49.744;8.118;2023-04-25T10:02:14;9.90;99.90
7936;DHT22;4013;49.744;8.118;2023-04-25T10:04:41;9.90;99.90
7936;DHT22;4013;49.744;8.118;2023-04-25T10:07:11;10.00;99.90
7936;DHT22;4013;49.744;8.118;2023-04-25T10:09:39;10.20;99.90
7936;DHT22;4013;49.744;8.118;2023-04-25T10:12:07;10.10;99.90
7936;DHT22;4013;49.744;8.118;2023-04-25T10:14:35;9.90;99.90
7936;DHT22;4013;49.744;8.118;2023-04-25T10:17:02;9.90;99.90
7936;DHT22;4013;49.744;8.118;2023-04-25T10:19:31;9.90;99.90
7936;DHT22;4013;49.744;8.118;2023-04-25T10:22:12;9.80;99.90
7936;DHT22;4013;49.744;8.118;2023-04-25T10:24:41;9.80;99.90
7936;DHT22;4013;49.744;8.118;2023-04-25T10:27:08;9.70;99.90
7936;DHT22;4013;49.744;8.118;2023-04-25T10:29:37;9.60;99.90
7936;DHT22;4013;49.744;8.118;2023-04-25T10:32:04;9.60;99.90
7936;DHT22;4013;49.744;8.118;2023-04-25T10:34:38;9.50;99.90
7936;DHT22;4013;49.744;8.118;2023-04-25T10:37:08;9.50;99.90
7936;DHT22;4013;49.744;8.118;2023-04-25T10:39:35;9.50;99.90
7936;DHT22;4013;49.744;8.118;2023-04-25T10:42:04;9.50;99.90
7936;DHT22;4013;49.744;8.118;2023-04-25T10:44:32;9.70;99.90
7936;DHT22;4013;49.744;8.118;2023-04-25T10:47:01;9.70;99.90
7936;DHT22;4013;49.744;8.118;2023-04-25T10:49:32;9.80;99.90
7936;DHT22;4013;49.744;8.118;2023-04-25T10:52:13;9.80;99.90
7936;DHT22;4013;49.744;8.118;2023-04-25T10:54:41;9.90;99.90
7936;DHT22;4013;49.744;8.118;2023-04-25T10:57:27;9.90;99.90
7936;DHT22;4013;49.744;8.118;2023-04-25T10:59:58;9.90;99.90
7936;DHT22;4013;49.744;8.118;2023-04-25T11:02:28;10.00;99.90
7936;DHT22;4013;49.744;8.118;2023-04-25T11:04:55;10.20;99.90
7936;DHT22;4013;49.744;8.118;2023-04-25T11:07:29;10.20;99.90
7936;DHT22;4013;49.744;8.118;2023-04-25T11:10:02;10.30;99.90
7936;DHT22;4013;49.744;8.118;2023-04-25T11:12:30;10.40;99.90
7936;DHT22;4013;49.744;8.118;2023-04-25T11:15:05;10.60;99.90
7936;DHT22;4013;49.744;8.118;2023-04-25T11:17:34;10.70;99.90
7936;DHT22;4013;49.744;8.118;2023-04-25T11:20:01;10.70;99.90
7936;DHT22;4013;49.744;8.118;2023-04-25T11:22:29;10.30;99.90
7936;DHT22;4013;49.744;8.118;2023-04-25T11:24:56;10.50;99.90
7936;DHT22;4013;49.744;8.118;2023-04-25T11:27:23;10.60;99.90
7936;DHT22;4013;49.744;8.118;2023-04-25T11:29:51;10.60;99.90
7936;DHT22;4013;49.744;8.118;2023-04-25T11:32:18;10.60;99.90
7936;DHT22;4013;49.744;8.118;2023-04-25T11:34:47;10.50;99.90
7936;DHT22;4013;49.744;8.118;2023-04-25T11:37:14;10.50;99.90
7936;DHT22;4013;49.744;8.118;2023-04-25T11:39:45;10.40;99.90
7936;DHT22;4013;49.744;8.118;2023-04-25T11:42:13;10.50;99.90
7936;DHT22;4013;49.744;8.118;2023-04-25T11:44:40;10.60;99.90
7936;DHT22;4013;49.744;8.118;2023-04-25T11:47:07;10.60;99.90
7936;DHT22;4013;49.744;8.118;2023-04-25T11:49:35;10.60;99.90
7936;DHT22;4013;49.744;8.118;2023-04-25T11:52:06;10.80;99.90
7936;DHT22;4013;49.744;8.118;2023-04-25T11:54:35;11.00;99.90
7936;DHT22;4013;49.744;8.118;2023-04-25T11:57:03;11.00;99.90
7936;DHT22;4013;49.744;8.118;2023-04-25T11:59:30;11.00;99.90
7936;DHT22;4013;49.744;8.118;2023-04-25T12:01:57;10.90;99.90
7936;DHT22;4013;49.744;8.118;2023-04-25T12:04:30;10.80;99.90
7936;DHT22;4013;49.744;8.118;2023-04-25T12:06:57;10.80;99.90
7936;DHT22;4013;49.744;8.118;2023-04-25T12:09:32;10.80;99.90
7936;DHT22;4013;49.744;8.118;2023-04-25T12:12:00;10.90;99.90
7936;DHT22;4013;49.744;8.118;2023-04-25T12:14:29;10.90;99.90
7936;DHT22;4013;49.744;8.118;2023-04-25T12:16:58;10.90;99.90
7936;DHT22;4013;49.744;8.118;2023-04-25T12:19:29;10.80;99.90
7936;DHT22;4013;49.744;8.118;2023-04-25T12:21:59;10.90;99.90
7936;DHT22;4013;49.744;8.118;2023-04-25T12:24:26;10.80;99.90
7936;DHT22;4013;49.744;8.118;2023-04-25T12:27:00;10.70;99.90
7936;DHT22;4013;49.744;8.118;2023-04-25T12:29:29;10.50;99.90
7936;DHT22;4013;49.744;8.118;2023-04-25T12:31:57;10.40;99.90
7936;DHT22;4013;49.744;8.118;2023-04-25T12:34:24;10.70;99.90
7936;DHT22;4013;49.744;8.118;2023-04-25T12:36:52;11.10;99.90
7936;DHT22;4013;49.744;8.118;2023-04-25T12:39:20;11.40;99.90
7936;DHT22;4013;49.744;8.118;2023-04-25T12:41:48;11.60;99.90
7936;DHT22;4013;49.744;8.118;2023-04-25T12:44:17;11.60;99.90
7936;DHT22;4013;49.744;8.118;2023-04-25T12:46:43;11.40;99.90
7936;DHT22;4013;49.744;8.118;2023-04-25T12:49:10;11.10;99.90
7936;DHT22;4013;49.744;8.118;2023-04-25T12:51:37;11.10;99.90
7936;DHT22;4013;49.744;8.118;2023-04-25T12:54:05;10.90;99.90
7936;DHT22;4013;49.744;8.118;2023-04-25T12:56:32;10.90;99.90
7936;DHT22;4013;49.744;8.118;2023-04-25T12:58:59;11.00;99.90
7936;DHT22;4013;49.744;8.118;2023-04-25T13:01:30;11.20;99.90
7936;DHT22;4013;49.744;8.118;2023-04-25T13:03:57;11.20;99.90
7936;DHT22;4013;49.744;8.118;2023-04-25T13:06:24;11.20;99.90
7936;DHT22;4013;49.744;8.118;2023-04-25T13:08:51;11.30;99.90
7936;DHT22;4013;49.744;8.118;2023-04-25T13:11:18;11.20;99.90
7936;DHT22;4013;49.744;8.118;2023-04-25T13:13:45;11.20;99.90
7936;DHT22;4013;49.744;8.118;2023-04-25T13:16:12;11.00;99.90
7936;DHT22;4013;49.744;8.118;2023-04-25T13:18:41;11.10;99.90
7936;DHT22;4013;49.744;8.118;2023-04-25T13:21:09;11.20;99.90
7936;DHT22;4013;49.744;8.118;2023-04-25T13:23:37;11.30;99.90
7936;DHT22;4013;49.744;8.118;2023-04-25T13:26:04;11.30;99.90
7936;DHT22;4013;49.744;8.118;2023-04-25T13:28:31;11.20;99.90
7936;DHT22;4013;49.744;8.118;2023-04-25T13:30:58;11.20;99.90
7936;DHT22;4013;49.744;8.118;2023-04-25T13:33:25;11.20;99.90
7936;DHT22;4013;49.744;8.118;2023-04-25T13:35:54;11.20;99.90
7936;DHT22;4013;49.744;8.118;2023-04-25T13:38:23;11.30;99.90
7936;DHT22;4013;49.744;8.118;2023-04-25T13:40:50;11.30;99.90
7936;DHT22;4013;49.744;8.118;2023-04-25T13:43:18;11.50;99.90
7936;DHT22;4013;49.744;8.118;2023-04-25T13:45:46;11.40;99.90
7936;DHT22;4013;49.744;8.118;2023-04-25T13:48:13;11.50;99.90
7936;DHT22;4013;49.744;8.118;2023-04-25T13:50:40;11.40;99.90
7936;DHT22;4013;49.744;8.118;2023-04-25T13:53:08;11.40;99.90
7936;DHT22;4013;49.744;8.118;2023-04-25T13:55:35;11.40;99.90
7936;DHT22;4013;49.744;8.118;2023-04-25T13:58:03;11.30;99.90
7936;DHT22;4013;49.744;8.118;2023-04-25T14:00:34;11.30;99.90
7936;DHT22;4013;49.744;8.118;2023-04-25T14:03:02;11.20;99.90
7936;DHT22;4013;49.744;8.118;2023-04-25T14:05:33;11.20;99.90
7936;DHT22;4013;49.744;8.118;2023-04-25T14:08:04;11.20;99.90
7936;DHT22;4013;49.744;8.118;2023-04-25T14:10:33;11.30;99.90
7936;DHT22;4013;49.744;8.118;2023-04-25T14:13:00;11.20;99.90
7936;DHT22;4013;49.744;8.118;2023-04-25T14:15:29;11.20;99.90
7936;DHT22;4013;49.744;8.118;2023-04-25T14:17:56;11.20;99.90
7936;DHT22;4013;49.744;8.118;2023-04-25T14:20:23;11.40;99.90
7936;DHT22;4013;49.744;8.118;2023-04-25T14:22:50;11.60;99.90
7936;DHT22;4013;49.744;8.118;2023-04-25T14:25:17;11.70;99.90
7936;DHT22;4013;49.744;8.118;2023-04-25T14:27:46;11.60;99.90
7936;DHT22;4013;49.744;8.118;2023-04-25T14:30:15;11.70;99.90
7936;DHT22;4013;49.744;8.118;2023-04-25T14:32:42;11.70;99.90
7936;DHT22;4013;49.744;8.118;2023-04-25T14:35:09;11.90;99.90
7936;DHT22;4013;49.744;8.118;2023-04-25T14:37:36;11.90;99.90
7936;DHT22;4013;49.744;8.118;2023-04-25T14:40:04;12.00;99.90
7936;DHT22;4013;49.744;8.118;2023-04-25T14:42:34;11.90;99.90
7936;DHT22;4013;49.744;8.118;2023-04-25T14:45:03;12.00;99.90
7936;DHT22;4013;49.744;8.118;2023-04-25T14:47:31;11.90;99.90
7936;DHT22;4013;49.744;8.118;2023-04-25T14:49:57;11.70;99.90
7936;DHT22;4013;49.744;8.118;2023-04-25T14:52:24;11.70;99.90
7936;DHT22;4013;49.744;8.118;2023-04-25T14:54:52;11.60;99.90
7936;DHT22;4013;49.744;8.118;2023-04-25T14:57:19;11.50;99.90
7936;DHT22;4013;49.744;8.118;2023-04-25T14:59:46;11.50;99.90
7936;DHT22;4013;49.744;8.118;2023-04-25T15:02:14;11.40;99.90
7936;DHT22;4013;49.744;8.118;2023-04-25T15:04:41;11.30;99.90
7936;DHT22;4013;49.744;8.118;2023-04-25T15:07:08;11.20;99.90
7936;DHT22;4013;49.744;8.118;2023-04-25T15:09:35;11.10;99.90
7936;DHT22;4013;49.744;8.118;2023-04-25T15:12:02;11.20;99.90
7936;DHT22;4013;49.744;8.118;2023-04-25T15:14:29;11.20;99.90
7936;DHT22;4013;49.744;8.118;2023-04-25T15:16:56;11.20;99.90
7936;DHT22;4013;49.744;8.118;2023-04-25T15:19:25;11.30;99.90
7936;DHT22;4013;49.744;8.118;2023-04-25T15:21:52;11.20;99.90
7936;DHT22;4013;49.744;8.118;2023-04-25T15:24:19;11.10;99.90
7936;DHT22;4013;49.744;8.118;2023-04-25T15:26:47;11.10;99.90
7936;DHT22;4013;49.744;8.118;2023-04-25T15:29:14;11.20;99.90
7936;DHT22;4013;49.744;8.118;2023-04-25T15:31:41;11.30;99.90
7936;DHT22;4013;49.744;8.118;2023-04-25T15:34:08;11.30;99.90
7936;DHT22;4013;49.744;8.118;2023-04-25T15:36:36;11.20;99.90
7936;DHT22;4013;49.744;8.118;2023-04-25T15:39:03;11.20;99.90
7936;DHT22;4013;49.744;8.118;2023-04-25T15:41:30;11.20;99.90
7936;DHT22;4013;49.744;8.118;2023-04-25T15:43:59;11.20;99.90
7936;DHT22;4013;49.744;8.118;2023-04-25T15:46:26;11.10;99.90
7936;DHT22;4013;49.744;8.118;2023-04-25T15:48:55;10.90;99.90
7936;DHT22;4013;49.744;8.118;2023-04-25T15:51:22;10.80;99.90
7936;DHT22;4013;49.744;8.118;2023-04-25T15:53:50;10.80;99.90
7936;DHT22;4013;49.744;8.118;2023-04-25T15:56:17;10.80;99.90
7936;DHT22;4013;49.744;8.118;2023-04-25T15:58:44;10.90;99.90
7936;DHT22;4013;49.744;8.118;2023-04-25T16:01:11;10.70;99.90
7936;DHT22;4013;49.744;8.118;2023-04-25T16:03:38;10.70;99.90
7936;DHT22;4013;49.744;8.118;2023-04-25T16:06:06;10.70;99.90
7936;DHT22;4013;49.744;8.118;2023-04-25T16:08:33;10.70;99.90
7936;DHT22;4013;49.744;8.118;2023-04-25T16:11:02;10.70;99.90
7936;DHT22;4013;49.744;8.118;2023-04-25T16:13:29;10.80;99.90
7936;DHT22;4013;49.744;8.118;2023-04-25T16:15:58;10.90;99.90